Weather observations for the past three days for
Harvey Municipal Airport
Imperial (Metric)
Date Time (cdt) Wind (mph) Vis. (mi.) Weather Sky Cond. Temperature (ºF) Relative Humidity Wind Chill (°F) Heat Index (°F) Pressure Precipitation (in)
Air Dwpt 6 hour altimeter (in) sea level (mb) 1 hr 3 hr 6 hr
Max. Min.
01 16:35 NW 9 10.00 Fair CLR 77 50 39% 78 29.97 0.0
01 16:15 NW 10 G 18 10.00 Fair CLR 77 50 39% 78 29.98 0.0
01 15:55 NW 7 G 14 9.00 Fair CLR 77 48.2 36% 78 29.98 0.0
01 15:35 W 10 10.00 Fair CLR 78.8 48.2 34% 79 29.98 0.0
01 15:15 NW 7 G 15 10.00 Fair CLR 77 50 39% 78 29.98 0.0
01 14:55 NW 10 10.00 Fair CLR 77 48.2 36% 78 29.98 0.0
01 14:35 NW 14 10.00 Fair CLR 77 50 39% 78 29.98 0.0
01 14:15 W 12 10.00 Fair CLR 77 48.2 36% 78 29.98 0.0
01 13:55 W 8 G 17 10.00 Fair CLR 78.8 48.2 34% 79 29.98 0.0
01 13:35 W 14 10.00 Fair CLR 78.8 48.2 34% 79 29.99 0.0
01 13:15 W 10 10.00 Fair CLR 77 50 39% 78 29.99 0.0
01 12:55 NW 12 10.00 Fair CLR 75.2 50 41% 78 30 0.0
01 12:35 NW 10 G 18 10.00 Fair CLR 75.2 50 41% 78 30 0.0
01 12:15 NW 14 10.00 Fair CLR 75.2 51.8 44% 78 30 0.0
01 11:55 NW 10 G 17 10.00 Fair CLR 75.2 53.6 47% 78 30 0.0
01 11:35 NW 9 10.00 Fair CLR 75.2 53.6 47% 78 30.01 0.0
01 11:15 NW 7 G 14 9.00 Fair CLR 73.4 55.4 53% 30 0.0
01 10:55 NW 10 10.00 Fair CLR 71.6 53.6 53% 30 0.0
01 10:35 NW 10 10.00 Fair CLR 69.8 55.4 60% 30 0.0
01 10:15 W 8 10.00 Fair CLR 69.8 55.4 60% 30 0.0
01 09:55 W 8 10.00 Fair CLR 68 55.4 64% 30.01 0.0
01 09:35 W 7 10.00 Fair CLR 66.2 57.2 73% 30.01 0.0
01 09:15 W 7 10.00 Fair CLR 64.4 59 83% 30.01 0.0
01 08:55 SW 10 10.00 Fair CLR 62.6 59 88% 30 0.0
01 08:35 SW 8 G 15 10.00 Fair CLR 60.8 59 94% 30 0.0
01 08:15 W 7 10.00 Fair CLR 59 57.2 94% 29.99 0.0
01 07:35 W 8 10.00 Fair CLR 57.2 55.4 94% 29.98 0.0
01 07:15 W 7 10.00 Fair CLR 53.6 53.6 100% 29.99 0.0
01 06:55 W 8 10.00 Fair CLR 53.6 53.6 100% 29.99 0.0
01 06:35 SW 8 10.00 Fair CLR 51.8 51.8 100% 29.98 0.0
01 06:15 SW 8 10.00 Fair CLR 53.6 53.6 100% 29.97 0.0
01 05:55 SW 9 10.00 Fair CLR 53.6 53.6 100% 29.97 0.0
01 05:35 W 7 10.00 Fair CLR 53.6 53.6 100% 29.96 0.0
01 05:15 SW 8 10.00 Fair CLR 53.6 53.6 100% 29.96 0.0
01 04:55 W 8 10.00 Fair CLR 53.6 53.6 100% 29.96 0.0
01 04:35 W 8 10.00 Fair CLR 53.6 53.6 100% 29.96 0.0
01 04:15 W 7 10.00 Fair CLR 55.4 55.4 100% 29.96 0.0
01 03:55 W 8 10.00 Fair CLR 55.4 55.4 100% 29.96 0.0
01 03:35 SW 9 10.00 Fair CLR 55.4 55.4 100% 29.96 0.0
01 03:15 SW 8 10.00 Fair CLR 55.4 55.4 100% 29.95 0.0
01 02:55 SW 9 10.00 Fair CLR 55.4 55.4 100% 29.95 0.0
01 02:35 SW 9 10.00 Fair CLR 55.4 55.4 100% 29.94 0.0
01 02:15 SW 9 10.00 Fair CLR 55.4 55.4 100% 29.94 0.0
01 01:55 SW 8 10.00 Fair CLR 55.4 55.4 100% 29.94 0.0
01 01:35 SW 8 10.00 Fair CLR 55.4 55.4 100% 29.94 0.0
01 01:15 SW 9 10.00 Fair CLR 55.4 55.4 100% 29.94 0.0
01 00:55 SW 7 10.00 Fair CLR 55.4 55.4 100% 29.93 0.0
01 00:35 SW 8 10.00 Fair CLR 57.2 57.2 100% 29.93 0.0
01 00:15 W 9 10.00 Fair CLR 59 57.2 94% 29.92 0.0
31 23:55 W 8 10.00 Fair CLR 57.2 57.2 100% 29.92 0.0
31 23:35 SW 8 10.00 Fair CLR 57.2 57.2 100% 29.92 0.0
31 23:15 SW 8 10.00 Fair CLR 57.2 57.2 100% 29.92 0.0
31 22:55 SW 8 10.00 Fair CLR 59 59 100% 29.92 0.0
31 22:35 SW 8 10.00 Fair CLR 60.8 57.2 88% 29.92 0.0
31 22:15 W 6 10.00 Fair CLR 64.4 57.2 78% 29.91 0.0
31 21:55 W 8 10.00 Fair CLR 64.4 57.2 78% 29.9 0.0
31 21:35 W 8 10.00 Fair CLR 64.4 57.2 78% 29.89 0.0
31 21:15 W 9 10.00 Fair CLR 66.2 57.2 73% 29.88 0.0
31 20:55 W 7 10.00 Fair CLR 64.4 57.2 78% 29.87 0.0
31 20:35 NW 7 10.00 Fair CLR 66.2 57.2 73% 29.87 0.0
31 20:15 NW 8 10.00 Fair CLR 69.8 55.4 60% 29.86 0.0
31 19:55 NW 12 G 18 10.00 Fair CLR 71.6 55.4 57% 29.85 0.0
31 19:35 W 14 10.00 Fair CLR 77 48.2 36% 78 29.83 0.0
31 19:15 W 17 10.00 Fair CLR 78.8 48.2 34% 79 29.82 0.0
31 18:55 W 17 G 30 9.00 Fair CLR 78.8 48.2 34% 79 29.82 0.0
31 18:35 W 22 G 36 9.00 Fair and Breezy CLR 80.6 46.4 30% 80 29.81 0.0
31 18:15 W 24 G 30 10.00 Fair and Breezy CLR 80.6 48.2 32% 80 29.81 0.0
31 17:55 W 17 G 25 9.00 Fair CLR 82.4 48.2 30% 81 29.81 0.0
31 17:35 W 25 G 36 9.00 Fair and Breezy CLR 80.6 48.2 32% 80 29.8 0.0
31 17:15 W 24 G 37 10.00 Fair and Breezy CLR 80.6 50 34% 80 29.8 0.0
31 16:55 W 21 G 40 10.00 Fair and Breezy CLR 80.6 48.2 32% 80 29.8 0.0
31 16:35 W 28 G 39 9.00 Fair and Windy CLR 80.6 48.2 32% 80 29.8 0.0
31 16:15 W 24 G 43 10.00 Fair and Breezy CLR 80.6 48.2 32% 80 29.79 0.0
31 15:55 W 28 G 37 9.00 Fair and Windy CLR 80.6 48.2 32% 80 29.79 0.0
31 15:35 SW 25 G 44 9.00 Fair and Breezy CLR 80.6 48.2 32% 80 29.8 0.0
31 15:15 W 28 G 39 9.00 Fair and Windy CLR 78.8 48.2 34% 79 29.8 0.0
31 14:55 W 32 G 40 9.00 Fair and Windy CLR 78.8 48.2 34% 79 29.8 0.0
31 14:35 W 32 G 41 9.00 Fair and Windy CLR 78.8 48.2 34% 79 29.8 0.0
31 14:15 W 28 G 40 10.00 Fair and Windy CLR 78.8 48.2 34% 79 29.81 0.0
31 13:55 SW 32 G 40 9.00 Fair and Windy CLR 78.8 48.2 34% 79 29.81 0.0
31 13:35 SW 31 G 41 9.00 Fair and Windy CLR 77 46.4 34% 78 29.81 0.0
31 13:15 SW 26 G 39 9.00 Fair and Windy CLR 77 46.4 34% 78 29.82 0.0
31 12:55 SW 28 G 39 9.00 Fair and Windy CLR 77 46.4 34% 78 29.82 0.0
31 12:35 SW 25 G 35 10.00 Fair and Breezy CLR 75.2 48.2 39% 77 29.83 0.0
31 12:15 SW 29 G 36 9.00 Fair and Windy CLR 75.2 48.2 39% 77 29.84 0.0
31 11:55 SW 25 G 33 10.00 Fair and Breezy CLR 73.4 48.2 41% 29.85 0.0
31 11:35 SW 22 G 31 10.00 Fair and Breezy CLR 71.6 50 47% 29.85 0.0
31 11:15 SW 23 G 29 10.00 Fair and Breezy CLR 71.6 51.8 50% 29.86 0.0
31 10:55 SW 21 G 30 9.00 Fair and Breezy CLR 69.8 51.8 53% 29.86 0.0
31 10:35 SW 17 G 28 10.00 Fair CLR 69.8 55.4 60% 29.87 0.0
31 10:15 SW 16 G 23 10.00 Fair CLR 68 59 73% 29.87 0.0
31 09:55 SW 17 10.00 Fair CLR 66.2 59 78% 29.87 0.0
31 09:35 SW 14 G 23 10.00 Fair CLR 62.6 59 88% 29.87 0.0
31 09:15 SW 15 G 22 10.00 Fair CLR 60.8 59 94% 29.87 0.0
31 08:55 SW 15 G 22 10.00 Fair CLR 59 57.2 94% 29.87 0.0
31 08:35 SW 15 10.00 Fair CLR 57.2 57.2 100% 29.87 0.0
31 08:15 SW 14 10.00 Fair CLR 57.2 57.2 100% 29.86 0.0
31 07:55 SW 12 10.00 Fair CLR 55.4 55.4 100% 29.85 0.0
31 07:35 SW 10 10.00 Fair CLR 53.6 53.6 100% 29.85 0.0
31 07:15 SW 10 10.00 Fair CLR 51.8 51.8 100% 29.84 0.0
31 06:55 SW 8 10.00 Fair CLR 51.8 51.8 100% 29.84 0.0
31 06:35 SW 7 10.00 Fair CLR 51.8 51.8 100% 29.83 0.0
31 06:15 SW 7 10.00 Fair CLR 51.8 51.8 100% 29.83 0.0
31 05:55 SW 8 10.00 Fair CLR 53.6 53.6 100% 29.84 0.0
31 05:35 SW 8 10.00 Fair CLR 53.6 53.6 100% 29.84 0.0
31 05:15 SW 9 10.00 Fair CLR 53.6 53.6 100% 29.83 0.0
31 04:55 SW 8 10.00 Fair CLR 53.6 53.6 100% 29.83 0.0
31 04:15 SW 8 10.00 Fair CLR 55.4 55.4 100% 29.83 0.0
31 03:55 SW 7 10.00 Fair CLR 55.4 55.4 100% 29.82 0.0
31 03:35 SW 7 10.00 Fair CLR 55.4 55.4 100% 29.82 0.0
31 03:15 SW 7 10.00 Fair CLR 55.4 55.4 100% 29.81 0.0
31 02:35 SW 8 10.00 Fair CLR 57.2 57.2 100% 29.81 0.0
31 02:15 W 8 10.00 Fair CLR 57.2 57.2 100% 29.81 0.0
31 01:55 W 8 10.00 Fair CLR 57.2 57.2 100% 29.81 0.0
31 01:35 W 9 10.00 Fair CLR 59 59 100% 29.81 0.0
31 01:15 W 9 8.00 A Few Clouds FEW021 60.8 60.8 100% 29.81 0.0
31 00:55 SW 8 4.00 Fog/Mist BKN020 60.8 60.8 100% 29.8 0.0
31 00:35 SW 8 6.00 Fog/Mist CLR 60.8 60.8 100% 29.79 0.0
31 00:15 W 7 8.00 Fair CLR 62.6 62.6 100% 29.78 0.0
30 23:55 W 7 10.00 Fair CLR 62.6 62.6 100% 29.77 0.0
30 23:35 W 7 10.00 Fair CLR 64.4 64.4 100% 29.77 0.0
30 23:15 W 8 10.00 Fair CLR 64.4 64.4 100% 29.76 0.0
30 22:55 NW 8 10.00 Partly Cloudy FEW037 FEW050 SCT100 64.4 64.4 100% 29.74 0.0
30 22:35 N 8 10.00 Partly Cloudy FEW100 SCT120 66.2 66.2 100% 29.71 0.0
30 22:15 NW 13 10.00 Partly Cloudy FEW011 SCT034 SCT043 66.2 66.2 100% 29.74 0.0
30 21:55 W 12 4.00 Fog/Mist FEW008 BKN035 BKN043 64.4 64.4 100% 29.77 0.0
30 21:35 W 14 G 21 4.00 Thunderstorm in Vicinity Rain SCT011 BKN030 OVC070 64.4 64.4 100% 29.78 0.0
30 21:15 W 15 G 23 2.00 Light Rain SCT007 BKN014 OVC026 66.2 66.2 100% 29.8 0.0
30 20:55 W 12 G 28 2.00 Thunderstorm in Vicinity Rain SCT008 BKN022 OVC110 66.2 66.2 100% 29.79 0.0
30 20:35 S 6 10.00 Overcast FEW025 SCT043 OVC110 71.6 71.6 100% 29.76 0.0
30 20:15 SE 8 9.00 Overcast SCT021 BKN025 OVC120 73.4 71.6 94% 29.74 0.0
30 19:55 SE 8 9.00 Mostly Cloudy BKN024 BKN039 BKN120 73.4 71.6 94% 29.73 0.0
30 19:35 SE 6 G 13 9.00 Mostly Cloudy SCT026 BKN038 73.4 71.6 94% 29.73 0.0
30 19:15 SE 6 G 13 9.00 Mostly Cloudy BKN037 73.4 71.6 94% 29.73 0.0
30 18:55 SE 7 9.00 Overcast OVC033 75.2 71.6 89% 75 29.73 0.0
30 18:35 SE 9 9.00 Overcast OVC032 75.2 71.6 89% 75 29.73 0.0
30 18:15 SE 8 G 15 9.00 Overcast OVC029 75.2 69.8 83% 75 29.74 0.0
30 17:55 SE 15 9.00 Mostly Cloudy FEW026 BKN031 77 69.8 79% 79 29.71 0.0
30 17:35 SE 12 9.00 Mostly Cloudy FEW025 BKN032 BKN039 77 69.8 79% 79 29.72 0.0
30 17:15 S 14 G 20 9.00 Mostly Cloudy FEW024 SCT034 BKN039 78.8 69.8 74% 81 29.72 0.0
30 16:55 SE 12 9.00 Mostly Cloudy FEW026 BKN035 78.8 69.8 74% 81 29.73 0.0
30 16:35 SE 9 G 15 9.00 Mostly Cloudy SCT027 BKN034 78.8 69.8 74% 81 29.74 0.0
30 16:15 SE 7 G 14 9.00 Mostly Cloudy BKN027 BKN033 80.6 69.8 70% 84 29.75 0.0
30 15:55 SE 9 10.00 Mostly Cloudy BKN028 BKN033 80.6 68 66% 83 29.75 0.0
30 15:35 SE 9 10.00 Mostly Cloudy BKN026 BKN031 80.6 69.8 70% 84 29.77 0.0
30 15:15 SE 8 G 14 10.00 Mostly Cloudy BKN026 80.6 69.8 70% 84 29.77 0.0
30 14:55 S 12 10.00 Overcast OVC027 80.6 69.8 70% 84 29.78 0.0
30 14:35 SE 9 G 16 10.00 Overcast OVC026 82.4 68 62% 85 29.78 0.0
30 14:15 SE 10 9.00 Mostly Cloudy BKN025 80.6 69.8 70% 84 29.79 0.0
30 13:55 SE 9 9.00 Mostly Cloudy BKN023 78.8 69.8 74% 81 29.79 0.0
30 13:35 SE 9 G 17 9.00 Mostly Cloudy SCT023 BKN055 BKN070 78.8 69.8 74% 81 29.79 0.0
30 13:15 SE 13 10.00 Mostly Cloudy BKN023 BKN060 BKN070 77 71.6 83% 78 29.8 0.0
30 12:55 SE 15 9.00 Overcast BKN019 BKN023 OVC060 77 71.6 83% 78 29.81 0.0
30 12:35 SE 9 G 18 9.00 Overcast BKN018 OVC022 75.2 71.6 89% 75 29.81 0.0
30 12:15 SE 13 G 18 10.00 Overcast BKN017 BKN023 OVC065 77 71.6 83% 78 29.81 0.0
30 11:55 SE 13 G 18 9.00 Overcast SCT015 OVC060 75.2 71.6 89% 75 29.82 0.0
30 11:35 SE 14 G 20 9.00 Overcast BKN014 BKN032 OVC065 73.4 71.6 94% 29.82 0.0
30 11:15 SE 14 9.00 Mostly Cloudy SCT009 BKN013 BKN031 71.6 71.6 100% 29.82 0.0
30 10:55 SE 10 G 17 8.00 Overcast OVC011 69.8 69.8 100% 29.82 0.0
30 10:35 SE 12 7.00 Thunderstorm in Vicinity BKN009 OVC013 69.8 69.8 100% 29.82 0.0
30 10:15 E 12 6.00 Fog/Mist OVC006 69.8 69.8 100% 29.82 0.0
30 09:55 E 12 7.00 Overcast OVC006 69.8 69.8 100% 29.82 0.0
30 09:35 E 10 6.00 Fog/Mist OVC006 69.8 69.8 100% 29.82 0.0
30 09:15 E 12 6.00 Fog/Mist OVC006 68 68 100% 29.83 0.0
30 08:35 E 9 4.00 Fog/Mist SCT006 SCT120 68 68 100% 29.82 0.0
30 08:15 E 8 5.00 Fog/Mist SCT006 BKN120 68 68 100% 29.81 0.0
30 07:55 E 10 4.00 Fog/Mist BKN005 BKN120 68 68 100% 29.81 0.0
30 07:35 E 8 5.00 Fog/Mist BKN005 OVC100 68 68 100% 29.82 0.0
30 07:15 E 6 5.00 Fog/Mist FEW005 FEW075 BKN110 68 68 100% 29.82 0.0
30 06:55 E 9 7.00 Overcast SCT006 OVC100 68 68 100% 29.81 0.0
30 06:35 E 8 7.00 Overcast BKN006 BKN047 OVC075 68 68 100% 29.81 0.0
30 06:15 E 9 5.00 Fog/Mist SCT008 BKN031 BKN046 68 68 100% 29.81 0.0
30 05:55 E 6 3.00 Fog/Mist BKN008 BKN022 OVC090 68 68 100% 29.81 0.0
30 05:35 SE 6 3.00 Fog/Mist SCT007 BKN011 OVC024 68 68 100% 29.81 0.0
30 05:15 E 9 4.00 Fog/Mist SCT022 BKN028 OVC046 68 68 100% 29.82 0.0
30 04:55 E 8 8.00 Overcast SCT022 BKN045 OVC100 68 68 100% 29.83 0.0
30 04:35 E 7 9.00 Thunderstorm in Vicinity SCT023 BKN070 OVC100 68 68 100% 29.82 0.0
30 04:15 E 7 9.00 Mostly Cloudy FEW022 SCT027 BKN035 68 68 100% 29.81 0.0
30 03:55 E 7 10.00 Overcast FEW025 BKN041 OVC100 68 68 100% 29.82 0.0
30 03:35 E 6 10.00 Overcast BKN037 OVC120 68 68 100% 29.82 0.0
30 03:15 E 5 10.00 Overcast OVC033 68 68 100% 29.82 0.0
30 02:55 E 8 10.00 Overcast OVC034 68 68 100% 29.83 0.0
30 02:35 E 7 10.00 Overcast OVC036 68 68 100% 29.83 0.0
30 02:15 E 8 10.00 Overcast OVC036 69.8 69.8 100% 29.83 0.0
30 01:55 E 9 10.00 Overcast OVC033 69.8 69.8 100% 29.83 0.0
30 01:35 E 8 10.00 Mostly Cloudy BKN033 69.8 69.8 100% 29.83 0.0
30 01:15 E 7 10.00 Overcast OVC033 69.8 69.8 100% 29.83 0.0
30 00:55 E 7 10.00 Mostly Cloudy BKN032 69.8 69.8 100% 29.83 0.0
30 00:35 E 6 10.00 Partly Cloudy SCT031 69.8 69.8 100% 29.84 0.0
30 00:15 E 7 10.00 Mostly Cloudy SCT029 BKN033 BKN039 69.8 69.8 100% 29.83 0.0
29 23:55 E 7 10.00 Mostly Cloudy FEW028 FEW039 BKN120 69.8 69.8 100% 29.84 0.0
29 23:35 E 5 10.00 Overcast OVC120 71.6 71.6 100% 29.85 0.0
29 23:15 E 7 10.00 Mostly Cloudy BKN120 71.6 71.6 100% 29.85 0.0
29 22:55 E 7 10.00 A Few Clouds FEW120 71.6 71.6 100% 29.84 0.0
29 22:35 E 8 10.00 A Few Clouds FEW090 FEW120 71.6 71.6 100% 29.84 0.0
29 22:15 E 6 10.00 Fair CLR 71.6 71.6 100% 29.85 0.0
29 21:55 E 8 10.00 Fair CLR 71.6 71.6 100% 29.83 0.0
29 21:35 E 6 10.00 Fair CLR 71.6 71.6 100% 29.83 0.0
29 21:15 E 6 10.00 Fair CLR 71.6 71.6 100% 29.82 0.0
29 20:55 E 5 10.00 Fair CLR 71.6 71.6 100% 29.82 0.0
29 20:35 E 7 9.00 Partly Cloudy SCT025 SCT033 73.4 73.4 100% 29.8 0.0
29 20:15 E 6 9.00 Overcast BKN025 BKN030 OVC038 75.2 73.4 94% 74 29.81 0.0
29 19:55 E 5 9.00 Mostly Cloudy SCT024 BKN030 BKN039 77 73.4 89% 78 29.82 0.0
29 19:35 E 5 8.00 Fair CLR 77 71.6 83% 78 29.81 0.0
29 19:15 E 6 9.00 Fair CLR 78.8 71.6 79% 82 29.81 0.0
29 18:55 E 7 9.00 Fair CLR 78.8 71.6 79% 82 29.81 0.0
29 18:35 E 7 9.00 Fair CLR 80.6 69.8 70% 84 29.81 0.0
29 18:15 E 6 9.00 Fair CLR 80.6 69.8 70% 84 29.81 0.0
29 17:55 E 7 10.00 Fair CLR 80.6 69.8 70% 84 29.81 0.0
29 17:35 NE 6 9.00 Fair CLR 80.6 69.8 70% 84 29.81 0.0
29 17:15 NE 5 9.00 Fair CLR 80.6 68 66% 83 29.82 0.0
29 16:55 NE 5 9.00 Fair CLR 80.6 69.8 70% 84 29.81 0.0
Date Time (cdt) Wind (mph) Vis. (mi.) Weather Sky Cond. Air Dwpt Max. Min. Relative Humidity Wind Chill (°F) Heat Index (°F) altimeter (in) sea level (mb) 1 hr 3 hr 6 hr
6 hour
Temperature (ºF) Pressure Precipitation (in)